Greens Bayou, Texas
Current Conditions -  °F | °C
As of 12:50 AM on Friday 19 Dec 2014 (Local Time) from KEFD Reporting Station
Thunderstorm Thunderstorm  
Wind Chill: 61°   Ceiling: 700
Heat Index: 61°   Visibility: 3mi
Dew Point: 61°   Wind: 6mph
Humidity: 100%   Direction: 10°N
Pressure: 30.02"   Gusts: NA
Location:  29.7654°N, 95.1705°W
Report Text: KEFD 190650Z 01005KT 3SM VCTSRA BR OVC007CB 16/16 A3002 RMK OCNL LTGIC NW NE MOV N CB ALQDS
Loading
Personal Weather Stations






























Interactive Weather Map New forecast layout! Learn more

10-Day Weather Forecast

Advertisements
Track Severe Weather on mobile